sensor_id;sensor_type;location;lat;lon;timestamp;P1;durP1;ratioP1;P2;durP2;ratioP2
41446;SDS011;27185;52.040;4.490;2023-08-06T00:02:30;6.90;;;5.22;;
41446;SDS011;27185;52.040;4.490;2023-08-06T00:05:16;6.47;;;5.38;;
41446;SDS011;27185;52.040;4.490;2023-08-06T00:08:06;10.02;;;6.32;;
41446;SDS011;27185;52.040;4.490;2023-08-06T00:10:51;8.93;;;5.70;;
41446;SDS011;27185;52.040;4.490;2023-08-06T00:13:37;7.95;;;5.82;;
41446;SDS011;27185;52.040;4.490;2023-08-06T00:16:22;6.68;;;5.80;;
41446;SDS011;27185;52.040;4.490;2023-08-06T00:19:08;7.35;;;5.78;;
41446;SDS011;27185;52.040;4.490;2023-08-06T00:21:54;6.10;;;5.25;;
41446;SDS011;27185;52.040;4.490;2023-08-06T00:24:40;9.18;;;5.93;;
41446;SDS011;27185;52.040;4.490;2023-08-06T00:27:26;6.93;;;5.25;;
41446;SDS011;27185;52.040;4.490;2023-08-06T00:30:14;7.85;;;5.93;;
41446;SDS011;27185;52.040;4.490;2023-08-06T00:32:59;7.97;;;6.00;;
41446;SDS011;27185;52.040;4.490;2023-08-06T00:35:45;7.15;;;6.13;;
41446;SDS011;27185;52.040;4.490;2023-08-06T00:38:31;7.95;;;5.47;;
41446;SDS011;27185;52.040;4.490;2023-08-06T00:41:17;8.82;;;5.55;;
41446;SDS011;27185;52.040;4.490;2023-08-06T00:44:03;7.43;;;5.70;;
41446;SDS011;27185;52.040;4.490;2023-08-06T00:46:49;8.48;;;5.78;;
41446;SDS011;27185;52.040;4.490;2023-08-06T00:49:36;8.38;;;5.50;;
41446;SDS011;27185;52.040;4.490;2023-08-06T00:52:23;7.65;;;5.95;;
41446;SDS011;27185;52.040;4.490;2023-08-06T00:55:09;8.88;;;5.90;;
41446;SDS011;27185;52.040;4.490;2023-08-06T00:57:55;10.15;;;6.07;;
41446;SDS011;27185;52.040;4.490;2023-08-06T01:00:41;7.60;;;6.22;;
41446;SDS011;27185;52.040;4.490;2023-08-06T01:03:27;7.57;;;6.72;;
41446;SDS011;27185;52.040;4.490;2023-08-06T01:06:12;10.05;;;6.28;;
41446;SDS011;27185;52.040;4.490;2023-08-06T01:09:01;9.15;;;6.22;;
41446;SDS011;27185;52.040;4.490;2023-08-06T01:11:55;7.20;;;5.65;;
41446;SDS011;27185;52.040;4.490;2023-08-06T01:17:36;6.13;;;4.30;;
41446;SDS011;27185;52.040;4.490;2023-08-06T01:20:30;6.13;;;4.70;;
41446;SDS011;27185;52.040;4.490;2023-08-06T01:23:16;6.82;;;4.22;;
41446;SDS011;27185;52.040;4.490;2023-08-06T01:29:06;6.10;;;4.93;;
41446;SDS011;27185;52.040;4.490;2023-08-06T01:31:53;6.10;;;4.82;;
41446;SDS011;27185;52.040;4.490;2023-08-06T01:34:40;6.85;;;5.22;;
41446;SDS011;27185;52.040;4.490;2023-08-06T01:37:28;6.03;;;5.43;;
41446;SDS011;27185;52.040;4.490;2023-08-06T01:40:14;5.82;;;5.22;;
41446;SDS011;27185;52.040;4.490;2023-08-06T01:43:00;6.25;;;5.30;;
41446;SDS011;27185;52.040;4.490;2023-08-06T01:45:46;7.47;;;5.10;;
41446;SDS011;27185;52.040;4.490;2023-08-06T01:48:31;5.38;;;4.80;;
41446;SDS011;27185;52.040;4.490;2023-08-06T01:51:17;6.82;;;5.57;;
41446;SDS011;27185;52.040;4.490;2023-08-06T01:54:03;5.82;;;5.07;;
41446;SDS011;27185;52.040;4.490;2023-08-06T01:56:48;8.23;;;4.97;;
41446;SDS011;27185;52.040;4.490;2023-08-06T01:59:34;5.97;;;4.85;;
41446;SDS011;27185;52.040;4.490;2023-08-06T02:02:19;4.53;;;3.75;;
41446;SDS011;27185;52.040;4.490;2023-08-06T02:05:05;5.13;;;3.47;;
41446;SDS011;27185;52.040;4.490;2023-08-06T02:07:51;3.95;;;3.20;;
41446;SDS011;27185;52.040;4.490;2023-08-06T02:10:36;4.03;;;3.47;;
41446;SDS011;27185;52.040;4.490;2023-08-06T02:13:22;3.90;;;3.08;;
41446;SDS011;27185;52.040;4.490;2023-08-06T02:16:08;3.25;;;2.63;;
41446;SDS011;27185;52.040;4.490;2023-08-06T02:18:53;5.68;;;2.92;;
41446;SDS011;27185;52.040;4.490;2023-08-06T02:21:39;4.65;;;2.17;;
41446;SDS011;27185;52.040;4.490;2023-08-06T02:24:24;4.07;;;1.80;;
41446;SDS011;27185;52.040;4.490;2023-08-06T02:27:10;2.28;;;1.52;;
41446;SDS011;27185;52.040;4.490;2023-08-06T02:29:56;2.35;;;1.50;;
41446;SDS011;27185;52.040;4.490;2023-08-06T02:32:41;1.88;;;1.08;;
41446;SDS011;27185;52.040;4.490;2023-08-06T02:35:28;1.85;;;1.25;;
41446;SDS011;27185;52.040;4.490;2023-08-06T02:38:14;2.22;;;1.25;;
41446;SDS011;27185;52.040;4.490;2023-08-06T02:41:02;2.58;;;1.58;;
41446;SDS011;27185;52.040;4.490;2023-08-06T02:43:48;2.00;;;0.98;;
41446;SDS011;27185;52.040;4.490;2023-08-06T02:46:34;1.88;;;0.80;;
41446;SDS011;27185;52.040;4.490;2023-08-06T02:49:19;1.00;;;0.60;;
41446;SDS011;27185;52.040;4.490;2023-08-06T02:52:05;1.42;;;0.60;;
41446;SDS011;27185;52.040;4.490;2023-08-06T02:54:53;1.27;;;0.70;;
41446;SDS011;27185;52.040;4.490;2023-08-06T02:57:38;4.15;;;0.60;;
41446;SDS011;27185;52.040;4.490;2023-08-06T03:00:25;2.47;;;0.70;;
41446;SDS011;27185;52.040;4.490;2023-08-06T03:03:10;1.33;;;0.60;;
41446;SDS011;27185;52.040;4.490;2023-08-06T03:05:56;3.30;;;0.60;;
41446;SDS011;27185;52.040;4.490;2023-08-06T03:08:42;1.30;;;0.60;;
41446;SDS011;27185;52.040;4.490;2023-08-06T03:11:27;0.73;;;0.50;;
41446;SDS011;27185;52.040;4.490;2023-08-06T03:14:13;2.35;;;0.60;;
41446;SDS011;27185;52.040;4.490;2023-08-06T03:16:58;1.10;;;0.60;;
41446;SDS011;27185;52.040;4.490;2023-08-06T03:19:44;1.65;;;0.70;;
41446;SDS011;27185;52.040;4.490;2023-08-06T03:22:31;1.98;;;0.70;;
41446;SDS011;27185;52.040;4.490;2023-08-06T03:25:16;3.55;;;1.13;;
41446;SDS011;27185;52.040;4.490;2023-08-06T03:28:03;2.38;;;1.55;;
41446;SDS011;27185;52.040;4.490;2023-08-06T03:30:48;3.63;;;2.50;;
41446;SDS011;27185;52.040;4.490;2023-08-06T03:33:47;4.65;;;2.90;;
41446;SDS011;27185;52.040;4.490;2023-08-06T03:36:32;5.78;;;3.88;;
41446;SDS011;27185;52.040;4.490;2023-08-06T03:39:19;4.72;;;3.50;;
41446;SDS011;27185;52.040;4.490;2023-08-06T03:42:05;4.82;;;4.28;;
41446;SDS011;27185;52.040;4.490;2023-08-06T03:44:50;7.03;;;5.25;;
41446;SDS011;27185;52.040;4.490;2023-08-06T03:47:36;7.30;;;5.78;;
41446;SDS011;27185;52.040;4.490;2023-08-06T03:50:21;7.90;;;5.82;;
41446;SDS011;27185;52.040;4.490;2023-08-06T03:53:07;7.65;;;5.50;;
41446;SDS011;27185;52.040;4.490;2023-08-06T03:55:53;6.15;;;3.83;;
41446;SDS011;27185;52.040;4.490;2023-08-06T03:58:40;4.65;;;2.63;;
41446;SDS011;27185;52.040;4.490;2023-08-06T04:01:26;6.60;;;3.08;;
41446;SDS011;27185;52.040;4.490;2023-08-06T04:04:12;5.28;;;2.60;;
41446;SDS011;27185;52.040;4.490;2023-08-06T04:06:57;5.57;;;2.28;;
41446;SDS011;27185;52.040;4.490;2023-08-06T04:09:53;4.45;;;2.28;;
41446;SDS011;27185;52.040;4.490;2023-08-06T04:12:39;5.30;;;1.75;;
41446;SDS011;27185;52.040;4.490;2023-08-06T04:15:25;5.18;;;2.35;;
41446;SDS011;27185;52.040;4.490;2023-08-06T04:18:10;4.60;;;2.10;;
41446;SDS011;27185;52.040;4.490;2023-08-06T04:20:56;3.65;;;1.75;;
41446;SDS011;27185;52.040;4.490;2023-08-06T04:23:42;4.82;;;1.55;;
41446;SDS011;27185;52.040;4.490;2023-08-06T04:26:27;4.10;;;1.73;;
41446;SDS011;27185;52.040;4.490;2023-08-06T04:29:13;7.00;;;2.20;;
41446;SDS011;27185;52.040;4.490;2023-08-06T04:31:58;8.07;;;2.00;;
41446;SDS011;27185;52.040;4.490;2023-08-06T04:34:44;4.65;;;1.73;;
41446;SDS011;27185;52.040;4.490;2023-08-06T04:37:30;2.35;;;1.60;;
41446;SDS011;27185;52.040;4.490;2023-08-06T04:40:15;4.95;;;1.88;;
41446;SDS011;27185;52.040;4.490;2023-08-06T04:43:01;4.28;;;2.08;;
41446;SDS011;27185;52.040;4.490;2023-08-06T04:45:51;4.85;;;2.03;;
41446;SDS011;27185;52.040;4.490;2023-08-06T04:48:38;4.68;;;2.67;;
41446;SDS011;27185;52.040;4.490;2023-08-06T04:51:24;5.45;;;2.08;;
41446;SDS011;27185;52.040;4.490;2023-08-06T04:54:09;7.18;;;2.38;;
41446;SDS011;27185;52.040;4.490;2023-08-06T04:56:55;6.88;;;2.38;;
41446;SDS011;27185;52.040;4.490;2023-08-06T04:59:40;3.67;;;2.50;;
41446;SDS011;27185;52.040;4.490;2023-08-06T05:02:26;4.90;;;2.78;;
41446;SDS011;27185;52.040;4.490;2023-08-06T05:05:12;6.72;;;2.88;;
41446;SDS011;27185;52.040;4.490;2023-08-06T05:07:57;5.95;;;2.63;;
41446;SDS011;27185;52.040;4.490;2023-08-06T05:10:43;5.63;;;2.17;;
41446;SDS011;27185;52.040;4.490;2023-08-06T05:13:29;5.85;;;3.05;;
41446;SDS011;27185;52.040;4.490;2023-08-06T05:16:15;5.03;;;2.65;;
41446;SDS011;27185;52.040;4.490;2023-08-06T05:19:00;4.60;;;2.72;;
41446;SDS011;27185;52.040;4.490;2023-08-06T05:21:46;5.50;;;3.13;;
41446;SDS011;27185;52.040;4.490;2023-08-06T05:24:32;5.20;;;3.00;;
41446;SDS011;27185;52.040;4.490;2023-08-06T05:27:17;6.93;;;3.03;;
41446;SDS011;27185;52.040;4.490;2023-08-06T05:30:05;5.07;;;2.55;;
41446;SDS011;27185;52.040;4.490;2023-08-06T05:32:51;5.50;;;2.95;;
41446;SDS011;27185;52.040;4.490;2023-08-06T05:35:37;4.20;;;2.72;;
41446;SDS011;27185;52.040;4.490;2023-08-06T05:38:23;8.63;;;3.05;;
41446;SDS011;27185;52.040;4.490;2023-08-06T05:41:08;5.65;;;3.00;;
41446;SDS011;27185;52.040;4.490;2023-08-06T05:43:54;7.50;;;1.92;;
41446;SDS011;27185;52.040;4.490;2023-08-06T05:46:40;5.65;;;2.28;;
41446;SDS011;27185;52.040;4.490;2023-08-06T05:49:25;5.28;;;1.77;;
41446;SDS011;27185;52.040;4.490;2023-08-06T05:52:11;7.43;;;2.13;;
41446;SDS011;27185;52.040;4.490;2023-08-06T05:54:56;4.13;;;1.90;;
41446;SDS011;27185;52.040;4.490;2023-08-06T05:57:42;5.47;;;1.90;;
41446;SDS011;27185;52.040;4.490;2023-08-06T06:00:27;5.38;;;1.75;;
41446;SDS011;27185;52.040;4.490;2023-08-06T06:03:13;5.60;;;1.52;;
41446;SDS011;27185;52.040;4.490;2023-08-06T06:05:59;3.28;;;1.30;;
41446;SDS011;27185;52.040;4.490;2023-08-06T06:08:46;4.47;;;1.08;;
41446;SDS011;27185;52.040;4.490;2023-08-06T06:11:32;4.20;;;1.42;;
41446;SDS011;27185;52.040;4.490;2023-08-06T06:14:17;4.85;;;0.90;;
41446;SDS011;27185;52.040;4.490;2023-08-06T06:17:03;2.50;;;0.77;;
41446;SDS011;27185;52.040;4.490;2023-08-06T06:19:49;3.03;;;0.80;;
41446;SDS011;27185;52.040;4.490;2023-08-06T06:22:35;6.90;;;0.80;;
41446;SDS011;27185;52.040;4.490;2023-08-06T06:25:20;1.80;;;0.70;;
41446;SDS011;27185;52.040;4.490;2023-08-06T06:28:06;2.65;;;0.65;;
41446;SDS011;27185;52.040;4.490;2023-08-06T06:30:52;2.95;;;0.60;;
41446;SDS011;27185;52.040;4.490;2023-08-06T06:33:37;3.78;;;0.70;;
41446;SDS011;27185;52.040;4.490;2023-08-06T06:36:23;2.35;;;0.70;;
41446;SDS011;27185;52.040;4.490;2023-08-06T06:39:08;2.88;;;0.80;;
41446;SDS011;27185;52.040;4.490;2023-08-06T06:41:54;2.47;;;0.50;;
41446;SDS011;27185;52.040;4.490;2023-08-06T06:44:40;1.63;;;0.60;;
41446;SDS011;27185;52.040;4.490;2023-08-06T06:47:25;4.10;;;0.65;;
41446;SDS011;27185;52.040;4.490;2023-08-06T06:50:11;2.70;;;0.70;;
41446;SDS011;27185;52.040;4.490;2023-08-06T06:52:56;2.15;;;0.45;;
41446;SDS011;27185;52.040;4.490;2023-08-06T06:55:42;4.78;;;0.75;;
41446;SDS011;27185;52.040;4.490;2023-08-06T06:58:28;3.35;;;0.70;;
41446;SDS011;27185;52.040;4.490;2023-08-06T07:01:14;3.53;;;0.60;;
41446;SDS011;27185;52.040;4.490;2023-08-06T07:03:59;3.42;;;0.88;;
41446;SDS011;27185;52.040;4.490;2023-08-06T07:06:49;4.05;;;1.05;;
41446;SDS011;27185;52.040;4.490;2023-08-06T07:09:37;2.50;;;0.80;;
41446;SDS011;27185;52.040;4.490;2023-08-06T07:12:24;2.45;;;0.70;;
41446;SDS011;27185;52.040;4.490;2023-08-06T07:15:09;1.95;;;0.70;;
41446;SDS011;27185;52.040;4.490;2023-08-06T07:17:55;4.95;;;0.88;;
41446;SDS011;27185;52.040;4.490;2023-08-06T07:20:41;2.75;;;0.77;;
41446;SDS011;27185;52.040;4.490;2023-08-06T07:23:26;2.33;;;1.02;;
41446;SDS011;27185;52.040;4.490;2023-08-06T07:26:12;3.75;;;0.93;;
41446;SDS011;27185;52.040;4.490;2023-08-06T07:28:59;2.87;;;1.10;;
41446;SDS011;27185;52.040;4.490;2023-08-06T07:31:45;4.05;;;1.00;;
41446;SDS011;27185;52.040;4.490;2023-08-06T07:34:31;3.72;;;1.00;;
41446;SDS011;27185;52.040;4.490;2023-08-06T07:37:19;4.93;;;1.20;;
41446;SDS011;27185;52.040;4.490;2023-08-06T07:40:05;2.70;;;1.00;;
41446;SDS011;27185;52.040;4.490;2023-08-06T07:42:52;3.97;;;1.23;;
41446;SDS011;27185;52.040;4.490;2023-08-06T07:45:40;5.43;;;1.48;;
41446;SDS011;27185;52.040;4.490;2023-08-06T07:48:25;2.72;;;1.10;;
41446;SDS011;27185;52.040;4.490;2023-08-06T07:51:12;4.72;;;1.33;;
41446;SDS011;27185;52.040;4.490;2023-08-06T07:53:57;6.28;;;2.05;;
41446;SDS011;27185;52.040;4.490;2023-08-06T07:56:43;4.03;;;1.75;;
41446;SDS011;27185;52.040;4.490;2023-08-06T07:59:29;5.90;;;1.90;;
41446;SDS011;27185;52.040;4.490;2023-08-06T08:02:15;5.30;;;2.03;;
41446;SDS011;27185;52.040;4.490;2023-08-06T08:05:01;5.57;;;1.77;;
41446;SDS011;27185;52.040;4.490;2023-08-06T08:07:47;4.07;;;1.48;;
41446;SDS011;27185;52.040;4.490;2023-08-06T08:10:32;3.53;;;1.38;;
41446;SDS011;27185;52.040;4.490;2023-08-06T08:13:19;3.80;;;1.30;;
41446;SDS011;27185;52.040;4.490;2023-08-06T08:16:05;3.88;;;1.02;;
41446;SDS011;27185;52.040;4.490;2023-08-06T08:18:52;5.00;;;1.30;;
41446;SDS011;27185;52.040;4.490;2023-08-06T08:21:37;3.40;;;1.38;;
41446;SDS011;27185;52.040;4.490;2023-08-06T08:24:23;5.05;;;1.45;;
41446;SDS011;27185;52.040;4.490;2023-08-06T08:27:09;3.05;;;1.30;;
41446;SDS011;27185;52.040;4.490;2023-08-06T08:29:55;3.08;;;1.02;;
41446;SDS011;27185;52.040;4.490;2023-08-06T08:32:40;2.72;;;1.00;;
41446;SDS011;27185;52.040;4.490;2023-08-06T08:35:26;3.50;;;1.00;;
41446;SDS011;27185;52.040;4.490;2023-08-06T08:38:11;2.33;;;0.90;;
41446;SDS011;27185;52.040;4.490;2023-08-06T08:40:57;2.97;;;1.02;;
41446;SDS011;27185;52.040;4.490;2023-08-06T08:43:44;3.13;;;1.10;;
41446;SDS011;27185;52.040;4.490;2023-08-06T08:46:31;3.40;;;0.90;;
41446;SDS011;27185;52.040;4.490;2023-08-06T08:49:18;1.63;;;0.73;;
41446;SDS011;27185;52.040;4.490;2023-08-06T08:52:06;3.72;;;1.00;;
41446;SDS011;27185;52.040;4.490;2023-08-06T08:54:55;2.80;;;1.00;;
41446;SDS011;27185;52.040;4.490;2023-08-06T08:57:41;2.88;;;0.98;;
41446;SDS011;27185;52.040;4.490;2023-08-06T09:00:28;2.28;;;1.00;;
41446;SDS011;27185;52.040;4.490;2023-08-06T09:03:14;3.88;;;0.80;;
41446;SDS011;27185;52.040;4.490;2023-08-06T09:06:02;2.15;;;0.85;;
41446;SDS011;27185;52.040;4.490;2023-08-06T09:09:12;2.53;;;0.75;;
41446;SDS011;27185;52.040;4.490;2023-08-06T09:11:59;1.90;;;0.90;;
41446;SDS011;27185;52.040;4.490;2023-08-06T09:14:47;3.83;;;0.90;;
41446;SDS011;27185;52.040;4.490;2023-08-06T09:17:32;2.08;;;0.80;;
41446;SDS011;27185;52.040;4.490;2023-08-06T09:20:18;2.40;;;0.85;;
41446;SDS011;27185;52.040;4.490;2023-08-06T09:23:08;3.05;;;0.73;;
41446;SDS011;27185;52.040;4.490;2023-08-06T09:25:55;3.05;;;0.85;;
41446;SDS011;27185;52.040;4.490;2023-08-06T09:28:41;4.70;;;1.00;;
41446;SDS011;27185;52.040;4.490;2023-08-06T09:31:49;2.83;;;0.90;;
41446;SDS011;27185;52.040;4.490;2023-08-06T09:34:38;2.50;;;0.90;;
41446;SDS011;27185;52.040;4.490;2023-08-06T09:37:25;9.20;;;1.00;;
41446;SDS011;27185;52.040;4.490;2023-08-06T09:40:30;1.58;;;0.70;;
41446;SDS011;27185;52.040;4.490;2023-08-06T09:43:18;2.10;;;0.70;;
41446;SDS011;27185;52.040;4.490;2023-08-06T09:46:10;1.73;;;0.70;;
41446;SDS011;27185;52.040;4.490;2023-08-06T09:48:58;3.40;;;0.88;;
41446;SDS011;27185;52.040;4.490;2023-08-06T09:51:44;2.05;;;0.70;;
41446;SDS011;27185;52.040;4.490;2023-08-06T09:54:31;1.77;;;0.70;;
41446;SDS011;27185;52.040;4.490;2023-08-06T09:57:20;1.90;;;0.65;;
41446;SDS011;27185;52.040;4.490;2023-08-06T10:00:06;2.15;;;0.60;;
41446;SDS011;27185;52.040;4.490;2023-08-06T10:02:55;3.17;;;0.60;;
41446;SDS011;27185;52.040;4.490;2023-08-06T10:05:45;2.58;;;0.70;;
41446;SDS011;27185;52.040;4.490;2023-08-06T10:08:31;2.65;;;0.75;;
41446;SDS011;27185;52.040;4.490;2023-08-06T10:11:17;2.08;;;0.60;;
41446;SDS011;27185;52.040;4.490;2023-08-06T10:14:08;3.35;;;0.70;;
41446;SDS011;27185;52.040;4.490;2023-08-06T10:16:57;1.98;;;0.60;;
41446;SDS011;27185;52.040;4.490;2023-08-06T10:19:44;1.73;;;0.50;;
41446;SDS011;27185;52.040;4.490;2023-08-06T10:22:32;2.22;;;0.68;;
41446;SDS011;27185;52.040;4.490;2023-08-06T10:25:18;2.05;;;0.60;;
41446;SDS011;27185;52.040;4.490;2023-08-06T10:28:08;2.53;;;0.70;;
41446;SDS011;27185;52.040;4.490;2023-08-06T10:30:54;2.17;;;0.70;;
41446;SDS011;27185;52.040;4.490;2023-08-06T10:33:41;2.40;;;0.60;;
41446;SDS011;27185;52.040;4.490;2023-08-06T10:36:30;2.28;;;0.70;;
41446;SDS011;27185;52.040;4.490;2023-08-06T10:39:18;1.33;;;0.52;;
41446;SDS011;27185;52.040;4.490;2023-08-06T10:42:03;1.60;;;0.60;;
41446;SDS011;27185;52.040;4.490;2023-08-06T10:48:00;2.35;;;0.60;;
41446;SDS011;27185;52.040;4.490;2023-08-06T10:50:46;1.67;;;0.70;;
41446;SDS011;27185;52.040;4.490;2023-08-06T10:53:31;2.67;;;0.68;;
41446;SDS011;27185;52.040;4.490;2023-08-06T10:56:22;2.60;;;0.70;;
41446;SDS011;27185;52.040;4.490;2023-08-06T10:59:14;1.58;;;0.60;;
41446;SDS011;27185;52.040;4.490;2023-08-06T11:04:46;1.77;;;0.70;;
41446;SDS011;27185;52.040;4.490;2023-08-06T11:07:32;2.20;;;0.75;;
41446;SDS011;27185;52.040;4.490;2023-08-06T11:10:18;2.67;;;0.88;;
41446;SDS011;27185;52.040;4.490;2023-08-06T11:13:07;2.10;;;0.70;;
41446;SDS011;27185;52.040;4.490;2023-08-06T11:15:52;2.37;;;0.70;;
41446;SDS011;27185;52.040;4.490;2023-08-06T11:18:39;2.38;;;0.60;;
41446;SDS011;27185;52.040;4.490;2023-08-06T11:21:27;2.05;;;0.70;;
41446;SDS011;27185;52.040;4.490;2023-08-06T11:24:12;2.08;;;0.60;;
41446;SDS011;27185;52.040;4.490;2023-08-06T11:26:58;1.67;;;0.60;;
41446;SDS011;27185;52.040;4.490;2023-08-06T11:29:44;2.00;;;0.40;;
41446;SDS011;27185;52.040;4.490;2023-08-06T11:32:32;1.30;;;0.70;;
41446;SDS011;27185;52.040;4.490;2023-08-06T11:35:18;1.95;;;0.40;;
41446;SDS011;27185;52.040;4.490;2023-08-06T11:38:04;2.65;;;0.68;;
41446;SDS011;27185;52.040;4.490;2023-08-06T11:40:50;1.02;;;0.43;;
41446;SDS011;27185;52.040;4.490;2023-08-06T11:43:36;2.22;;;0.85;;
41446;SDS011;27185;52.040;4.490;2023-08-06T11:46:22;1.70;;;0.73;;
41446;SDS011;27185;52.040;4.490;2023-08-06T11:49:08;1.45;;;0.40;;
41446;SDS011;27185;52.040;4.490;2023-08-06T11:51:53;3.00;;;0.65;;
41446;SDS011;27185;52.040;4.490;2023-08-06T11:54:39;1.55;;;0.45;;
41446;SDS011;27185;52.040;4.490;2023-08-06T11:57:25;1.60;;;0.50;;
41446;SDS011;27185;52.040;4.490;2023-08-06T12:00:11;0.88;;;0.30;;
41446;SDS011;27185;52.040;4.490;2023-08-06T12:02:58;1.10;;;0.30;;
41446;SDS011;27185;52.040;4.490;2023-08-06T12:05:43;1.52;;;0.40;;
41446;SDS011;27185;52.040;4.490;2023-08-06T12:08:31;2.10;;;0.30;;
41446;SDS011;27185;52.040;4.490;2023-08-06T12:11:20;0.60;;;0.30;;
41446;SDS011;27185;52.040;4.490;2023-08-06T12:14:06;0.93;;;0.30;;
41446;SDS011;27185;52.040;4.490;2023-08-06T12:16:52;1.40;;;0.30;;
41446;SDS011;27185;52.040;4.490;2023-08-06T12:19:37;1.80;;;0.32;;
41446;SDS011;27185;52.040;4.490;2023-08-06T12:22:23;1.30;;;0.30;;
41446;SDS011;27185;52.040;4.490;2023-08-06T12:25:09;5.45;;;0.30;;
41446;SDS011;27185;52.040;4.490;2023-08-06T12:27:57;2.17;;;0.30;;
41446;SDS011;27185;52.040;4.490;2023-08-06T12:30:44;1.00;;;0.20;;
41446;SDS011;27185;52.040;4.490;2023-08-06T12:36:16;1.23;;;0.28;;
41446;SDS011;27185;52.040;4.490;2023-08-06T12:39:01;3.60;;;0.40;;
41446;SDS011;27185;52.040;4.490;2023-08-06T12:41:47;5.22;;;0.50;;
41446;SDS011;27185;52.040;4.490;2023-08-06T12:44:33;0.68;;;0.20;;
41446;SDS011;27185;52.040;4.490;2023-08-06T12:47:19;2.85;;;0.40;;
41446;SDS011;27185;52.040;4.490;2023-08-06T12:50:05;1.52;;;0.32;;
41446;SDS011;27185;52.040;4.490;2023-08-06T12:52:51;4.20;;;0.30;;
41446;SDS011;27185;52.040;4.490;2023-08-06T12:55:36;1.20;;;0.30;;
41446;SDS011;27185;52.040;4.490;2023-08-06T12:58:22;0.40;;;0.10;;
41446;SDS011;27185;52.040;4.490;2023-08-06T13:01:09;1.35;;;0.20;;
41446;SDS011;27185;52.040;4.490;2023-08-06T13:03:55;1.10;;;0.20;;
41446;SDS011;27185;52.040;4.490;2023-08-06T13:06:40;1.25;;;0.20;;
41446;SDS011;27185;52.040;4.490;2023-08-06T13:09:26;2.38;;;0.25;;
41446;SDS011;27185;52.040;4.490;2023-08-06T13:12:12;0.98;;;0.30;;
41446;SDS011;27185;52.040;4.490;2023-08-06T13:14:58;1.15;;;0.30;;
41446;SDS011;27185;52.040;4.490;2023-08-06T13:17:44;1.83;;;0.20;;
41446;SDS011;27185;52.040;4.490;2023-08-06T13:20:30;1.17;;;0.20;;
41446;SDS011;27185;52.040;4.490;2023-08-06T13:23:16;1.95;;;0.30;;
41446;SDS011;27185;52.040;4.490;2023-08-06T13:26:03;1.33;;;0.20;;
41446;SDS011;27185;52.040;4.490;2023-08-06T13:28:48;2.03;;;0.30;;
41446;SDS011;27185;52.040;4.490;2023-08-06T13:31:35;10.48;;;1.15;;
41446;SDS011;27185;52.040;4.490;2023-08-06T13:34:21;5.55;;;0.88;;
41446;SDS011;27185;52.040;4.490;2023-08-06T13:37:07;5.95;;;0.85;;
41446;SDS011;27185;52.040;4.490;2023-08-06T13:39:52;7.45;;;0.90;;
41446;SDS011;27185;52.040;4.490;2023-08-06T13:42:38;8.82;;;0.80;;
41446;SDS011;27185;52.040;4.490;2023-08-06T13:45:24;6.45;;;0.90;;
41446;SDS011;27185;52.040;4.490;2023-08-06T13:48:10;6.78;;;0.95;;
41446;SDS011;27185;52.040;4.490;2023-08-06T13:50:55;5.03;;;0.47;;
41446;SDS011;27185;52.040;4.490;2023-08-06T13:53:41;5.53;;;0.50;;
41446;SDS011;27185;52.040;4.490;2023-08-06T13:56:28;4.30;;;0.40;;
41446;SDS011;27185;52.040;4.490;2023-08-06T13:59:14;6.65;;;1.02;;
41446;SDS011;27185;52.040;4.490;2023-08-06T14:02:01;2.57;;;0.40;;
41446;SDS011;27185;52.040;4.490;2023-08-06T14:04:47;2.40;;;0.30;;
41446;SDS011;27185;52.040;4.490;2023-08-06T14:07:34;3.42;;;0.32;;
41446;SDS011;27185;52.040;4.490;2023-08-06T14:10:20;1.67;;;0.30;;
41446;SDS011;27185;52.040;4.490;2023-08-06T14:13:05;2.92;;;0.70;;
41446;SDS011;27185;52.040;4.490;2023-08-06T14:15:51;2.47;;;0.40;;
41446;SDS011;27185;52.040;4.490;2023-08-06T14:18:37;4.30;;;0.60;;
41446;SDS011;27185;52.040;4.490;2023-08-06T14:21:23;4.88;;;0.75;;
41446;SDS011;27185;52.040;4.490;2023-08-06T14:24:08;3.70;;;0.77;;
41446;SDS011;27185;52.040;4.490;2023-08-06T14:26:54;4.88;;;0.60;;
41446;SDS011;27185;52.040;4.490;2023-08-06T14:29:40;4.30;;;0.57;;
41446;SDS011;27185;52.040;4.490;2023-08-06T14:32:25;5.75;;;0.73;;
41446;SDS011;27185;52.040;4.490;2023-08-06T14:35:11;6.55;;;0.80;;
41446;SDS011;27185;52.040;4.490;2023-08-06T14:37:56;2.45;;;0.40;;
41446;SDS011;27185;52.040;4.490;2023-08-06T14:40:43;4.60;;;0.50;;
41446;SDS011;27185;52.040;4.490;2023-08-06T14:43:28;5.28;;;0.60;;
41446;SDS011;27185;52.040;4.490;2023-08-06T14:46:14;6.95;;;0.65;;
41446;SDS011;27185;52.040;4.490;2023-08-06T14:49:00;6.15;;;0.90;;
41446;SDS011;27185;52.040;4.490;2023-08-06T14:51:45;4.75;;;0.80;;
41446;SDS011;27185;52.040;4.490;2023-08-06T14:54:31;5.10;;;0.80;;
41446;SDS011;27185;52.040;4.490;2023-08-06T14:57:17;3.60;;;0.50;;
41446;SDS011;27185;52.040;4.490;2023-08-06T15:00:03;5.38;;;0.90;;
41446;SDS011;27185;52.040;4.490;2023-08-06T15:02:49;6.38;;;1.00;;
41446;SDS011;27185;52.040;4.490;2023-08-06T15:05:35;5.43;;;0.50;;
41446;SDS011;27185;52.040;4.490;2023-08-06T15:08:20;4.38;;;0.85;;
41446;SDS011;27185;52.040;4.490;2023-08-06T15:11:07;7.88;;;1.00;;
41446;SDS011;27185;52.040;4.490;2023-08-06T15:13:54;10.90;;;1.10;;
41446;SDS011;27185;52.040;4.490;2023-08-06T15:16:39;6.63;;;0.90;;
41446;SDS011;27185;52.040;4.490;2023-08-06T15:19:25;9.40;;;0.77;;
41446;SDS011;27185;52.040;4.490;2023-08-06T15:22:11;8.90;;;1.25;;
41446;SDS011;27185;52.040;4.490;2023-08-06T15:24:57;8.80;;;1.25;;
41446;SDS011;27185;52.040;4.490;2023-08-06T15:27:44;9.13;;;1.52;;
41446;SDS011;27185;52.040;4.490;2023-08-06T15:30:31;8.65;;;1.30;;
41446;SDS011;27185;52.040;4.490;2023-08-06T15:33:17;8.32;;;1.02;;
41446;SDS011;27185;52.040;4.490;2023-08-06T15:36:03;4.20;;;0.65;;
41446;SDS011;27185;52.040;4.490;2023-08-06T15:38:49;8.52;;;0.90;;
41446;SDS011;27185;52.040;4.490;2023-08-06T15:41:34;5.40;;;0.73;;
41446;SDS011;27185;52.040;4.490;2023-08-06T15:44:20;6.57;;;1.17;;
41446;SDS011;27185;52.040;4.490;2023-08-06T15:47:07;6.38;;;1.00;;
41446;SDS011;27185;52.040;4.490;2023-08-06T15:49:52;6.20;;;0.80;;
41446;SDS011;27185;52.040;4.490;2023-08-06T15:52:38;6.00;;;1.05;;
41446;SDS011;27185;52.040;4.490;2023-08-06T15:55:24;7.10;;;1.08;;
41446;SDS011;27185;52.040;4.490;2023-08-06T15:58:09;7.88;;;0.90;;
41446;SDS011;27185;52.040;4.490;2023-08-06T16:00:55;8.02;;;1.25;;
41446;SDS011;27185;52.040;4.490;2023-08-06T16:03:40;8.25;;;0.90;;
41446;SDS011;27185;52.040;4.490;2023-08-06T16:06:30;7.47;;;1.35;;
41446;SDS011;27185;52.040;4.490;2023-08-06T16:09:15;8.18;;;1.20;;
41446;SDS011;27185;52.040;4.490;2023-08-06T16:12:01;9.02;;;1.08;;
41446;SDS011;27185;52.040;4.490;2023-08-06T16:14:48;7.13;;;0.95;;
41446;SDS011;27185;52.040;4.490;2023-08-06T16:17:34;8.05;;;0.93;;
41446;SDS011;27185;52.040;4.490;2023-08-06T16:20:20;5.97;;;0.63;;
41446;SDS011;27185;52.040;4.490;2023-08-06T16:23:06;7.55;;;0.90;;
41446;SDS011;27185;52.040;4.490;2023-08-06T16:25:51;4.95;;;0.60;;
41446;SDS011;27185;52.040;4.490;2023-08-06T16:28:37;6.00;;;1.15;;
41446;SDS011;27185;52.040;4.490;2023-08-06T16:31:23;8.75;;;1.00;;
41446;SDS011;27185;52.040;4.490;2023-08-06T16:34:08;8.02;;;0.98;;
41446;SDS011;27185;52.040;4.490;2023-08-06T16:36:54;7.25;;;1.00;;
41446;SDS011;27185;52.040;4.490;2023-08-06T16:39:40;2.75;;;0.68;;
41446;SDS011;27185;52.040;4.490;2023-08-06T16:42:25;10.73;;;0.75;;
41446;SDS011;27185;52.040;4.490;2023-08-06T16:45:11;7.60;;;0.80;;
41446;SDS011;27185;52.040;4.490;2023-08-06T16:47:56;8.07;;;0.70;;
41446;SDS011;27185;52.040;4.490;2023-08-06T16:50:50;7.13;;;1.00;;
41446;SDS011;27185;52.040;4.490;2023-08-06T16:53:39;8.82;;;1.38;;
41446;SDS011;27185;52.040;4.490;2023-08-06T16:56:32;5.05;;;1.00;;
41446;SDS011;27185;52.040;4.490;2023-08-06T16:59:20;7.75;;;0.88;;